EGHH

Bournemouth Airport

Bournemouth, United Kingdom
METAR EGHH 170550Z 15002KT 1200 BR BKN003 M03/M03 Q1025
Observed Flight Rules
Dec-17 @ 05:50 UTC (22 minutes ago) Instrument Flight Rules
Wind Visibility Clouds Conditions
150° at 2 knots 1,207 meters
  • Broken at 300' AGL
  • Mist
Temperatures Readings
Current -3°C / 27°F
Dewpoint -3°C / 27°F
Humidity 100%
Altimeter 30.27" Hg
Pressure 1025 hPa
Elevation 11
METAR EGHH 170550Z 15002KT 1200 BR BKN003 M03/M03 Q1025
Observed Flight Rules
Dec-17 @ 05:50 UTC
(22 minutes ago)
LIFR
Wind Visibility
150° at 2 knots 1,207 meters
Clouds
  • Broken at 300' AGL
Conditions
  • Mist
Temperature Dewpoint
-3°C / 27°F -3°C / 27°F
Humidity Altimeter Pressure
100% 30.27" Hg 1025 hPa